Grena, Denmark
Current Conditions -  °F | °C
As of 10:20 AM on Thursday 23 Oct 2014 (Local Time) from EKAH Reporting Station
Broken Clouds Broken Clouds  
Wind Chill: 52°   Ceiling: 2500
Heat Index: 52°   Visibility: 4mi
Dew Point: 48°   Wind: 3mph
Humidity: 88%   Direction: 160°SSE
Pressure: 30.09"   Gusts: NA
Location:  56.41°N, 10.89°E
Report Text: EKAH 230820Z AUTO 16003KT 6000NDV BKN025/// 11/09 Q1019
Loading
Personal Weather Stations






























Interactive Weather Map
Tropical Storm Tracking
New forecast layout! Learn more

10-Day Weather Forecast

Advertisements
Track Severe Weather on mobile